sensor_id;sensor_type;location;lat;lon;timestamp;P1;durP1;ratioP1;P2;durP2;ratioP2
2416;SDS011;1219;48.736;9.330;2023-07-24T00:00:48;6.37;;;5.77;;
2416;SDS011;1219;48.736;9.330;2023-07-24T00:03:14;9.03;;;7.33;;
2416;SDS011;1219;48.736;9.330;2023-07-24T00:05:40;8.70;;;6.10;;
2416;SDS011;1219;48.736;9.330;2023-07-24T00:08:06;17.00;;;6.53;;
2416;SDS011;1219;48.736;9.330;2023-07-24T00:10:32;6.33;;;5.73;;
2416;SDS011;1219;48.736;9.330;2023-07-24T00:12:58;7.27;;;5.70;;
2416;SDS011;1219;48.736;9.330;2023-07-24T00:15:24;7.83;;;7.07;;
2416;SDS011;1219;48.736;9.330;2023-07-24T00:17:50;7.17;;;6.30;;
2416;SDS011;1219;48.736;9.330;2023-07-24T00:20:16;7.93;;;5.87;;
2416;SDS011;1219;48.736;9.330;2023-07-24T00:22:42;6.33;;;5.80;;
2416;SDS011;1219;48.736;9.330;2023-07-24T00:25:08;8.10;;;6.60;;
2416;SDS011;1219;48.736;9.330;2023-07-24T00:27:34;7.90;;;6.23;;
2416;SDS011;1219;48.736;9.330;2023-07-24T00:30:00;5.90;;;5.37;;
2416;SDS011;1219;48.736;9.330;2023-07-24T00:32:26;7.50;;;6.40;;
2416;SDS011;1219;48.736;9.330;2023-07-24T00:34:52;8.37;;;6.40;;
2416;SDS011;1219;48.736;9.330;2023-07-24T00:37:18;8.43;;;5.93;;
2416;SDS011;1219;48.736;9.330;2023-07-24T00:39:43;8.33;;;7.03;;
2416;SDS011;1219;48.736;9.330;2023-07-24T00:42:09;10.90;;;6.67;;
2416;SDS011;1219;48.736;9.330;2023-07-24T00:44:35;12.47;;;6.43;;
2416;SDS011;1219;48.736;9.330;2023-07-24T00:47:02;8.97;;;5.80;;
2416;SDS011;1219;48.736;9.330;2023-07-24T00:49:28;8.37;;;6.50;;
2416;SDS011;1219;48.736;9.330;2023-07-24T00:51:54;6.60;;;5.90;;
2416;SDS011;1219;48.736;9.330;2023-07-24T00:54:20;7.60;;;6.00;;
2416;SDS011;1219;48.736;9.330;2023-07-24T00:56:47;6.60;;;5.90;;
2416;SDS011;1219;48.736;9.330;2023-07-24T00:59:14;7.20;;;5.83;;
2416;SDS011;1219;48.736;9.330;2023-07-24T01:01:40;6.90;;;6.10;;
2416;SDS011;1219;48.736;9.330;2023-07-24T01:04:07;7.47;;;5.87;;
2416;SDS011;1219;48.736;9.330;2023-07-24T01:06:33;7.70;;;6.27;;
2416;SDS011;1219;48.736;9.330;2023-07-24T01:08:59;7.50;;;6.23;;
2416;SDS011;1219;48.736;9.330;2023-07-24T01:11:27;8.73;;;6.10;;
2416;SDS011;1219;48.736;9.330;2023-07-24T01:16:40;8.97;;;6.73;;
2416;SDS011;1219;48.736;9.330;2023-07-24T01:19:11;8.10;;;5.80;;
2416;SDS011;1219;48.736;9.330;2023-07-24T01:21:42;9.60;;;7.13;;
2416;SDS011;1219;48.736;9.330;2023-07-24T01:27:08;11.10;;;6.13;;
2416;SDS011;1219;48.736;9.330;2023-07-24T01:29:34;7.23;;;6.33;;
2416;SDS011;1219;48.736;9.330;2023-07-24T01:32:00;7.80;;;6.50;;
2416;SDS011;1219;48.736;9.330;2023-07-24T01:34:26;8.20;;;6.80;;
2416;SDS011;1219;48.736;9.330;2023-07-24T01:36:52;9.43;;;6.63;;
2416;SDS011;1219;48.736;9.330;2023-07-24T01:39:18;6.57;;;5.97;;
2416;SDS011;1219;48.736;9.330;2023-07-24T01:41:45;10.53;;;5.50;;
2416;SDS011;1219;48.736;9.330;2023-07-24T01:44:12;8.77;;;6.20;;
2416;SDS011;1219;48.736;9.330;2023-07-24T01:46:38;6.13;;;5.53;;
2416;SDS011;1219;48.736;9.330;2023-07-24T01:49:04;8.73;;;6.67;;
2416;SDS011;1219;48.736;9.330;2023-07-24T01:51:30;9.10;;;7.10;;
2416;SDS011;1219;48.736;9.330;2023-07-24T01:53:56;7.53;;;6.40;;
2416;SDS011;1219;48.736;9.330;2023-07-24T01:56:22;6.83;;;5.73;;
2416;SDS011;1219;48.736;9.330;2023-07-24T01:58:48;9.23;;;6.63;;
2416;SDS011;1219;48.736;9.330;2023-07-24T02:01:14;7.50;;;6.73;;
2416;SDS011;1219;48.736;9.330;2023-07-24T02:03:40;7.80;;;6.87;;
2416;SDS011;1219;48.736;9.330;2023-07-24T02:06:06;7.70;;;6.30;;
2416;SDS011;1219;48.736;9.330;2023-07-24T02:08:32;7.87;;;6.77;;
2416;SDS011;1219;48.736;9.330;2023-07-24T02:10:58;8.23;;;6.70;;
2416;SDS011;1219;48.736;9.330;2023-07-24T02:13:24;6.63;;;5.33;;
2416;SDS011;1219;48.736;9.330;2023-07-24T02:15:50;8.27;;;6.80;;
2416;SDS011;1219;48.736;9.330;2023-07-24T02:18:18;11.27;;;7.60;;
2416;SDS011;1219;48.736;9.330;2023-07-24T02:20:50;8.93;;;6.50;;
2416;SDS011;1219;48.736;9.330;2023-07-24T02:23:16;7.70;;;6.27;;
2416;SDS011;1219;48.736;9.330;2023-07-24T02:25:42;7.37;;;6.57;;
2416;SDS011;1219;48.736;9.330;2023-07-24T02:28:08;7.63;;;6.90;;
2416;SDS011;1219;48.736;9.330;2023-07-24T02:30:38;7.30;;;6.60;;
2416;SDS011;1219;48.736;9.330;2023-07-24T02:33:04;9.70;;;6.47;;
2416;SDS011;1219;48.736;9.330;2023-07-24T02:35:30;9.23;;;6.60;;
2416;SDS011;1219;48.736;9.330;2023-07-24T02:37:56;9.80;;;6.70;;
2416;SDS011;1219;48.736;9.330;2023-07-24T02:40:22;9.47;;;6.53;;
2416;SDS011;1219;48.736;9.330;2023-07-24T02:42:48;9.00;;;6.97;;
2416;SDS011;1219;48.736;9.330;2023-07-24T02:45:14;8.83;;;6.83;;
2416;SDS011;1219;48.736;9.330;2023-07-24T02:47:40;10.23;;;6.80;;
2416;SDS011;1219;48.736;9.330;2023-07-24T02:50:07;10.70;;;7.37;;
2416;SDS011;1219;48.736;9.330;2023-07-24T02:52:33;8.83;;;6.67;;
2416;SDS011;1219;48.736;9.330;2023-07-24T02:54:59;8.93;;;7.10;;
2416;SDS011;1219;48.736;9.330;2023-07-24T02:57:25;7.27;;;6.00;;
2416;SDS011;1219;48.736;9.330;2023-07-24T02:59:51;10.40;;;8.33;;
2416;SDS011;1219;48.736;9.330;2023-07-24T03:02:17;8.60;;;6.70;;
2416;SDS011;1219;48.736;9.330;2023-07-24T03:04:43;8.20;;;6.40;;
2416;SDS011;1219;48.736;9.330;2023-07-24T03:07:09;9.23;;;6.73;;
2416;SDS011;1219;48.736;9.330;2023-07-24T03:09:35;7.30;;;6.07;;
2416;SDS011;1219;48.736;9.330;2023-07-24T03:12:01;7.17;;;6.50;;
2416;SDS011;1219;48.736;9.330;2023-07-24T03:14:26;11.57;;;7.27;;
2416;SDS011;1219;48.736;9.330;2023-07-24T03:16:52;8.77;;;6.63;;
2416;SDS011;1219;48.736;9.330;2023-07-24T03:19:18;9.03;;;6.90;;
2416;SDS011;1219;48.736;9.330;2023-07-24T03:21:45;8.87;;;6.53;;
2416;SDS011;1219;48.736;9.330;2023-07-24T03:24:11;8.93;;;6.40;;
2416;SDS011;1219;48.736;9.330;2023-07-24T03:26:37;8.10;;;5.93;;
2416;SDS011;1219;48.736;9.330;2023-07-24T03:29:04;8.70;;;6.13;;
2416;SDS011;1219;48.736;9.330;2023-07-24T03:31:30;8.50;;;6.70;;
2416;SDS011;1219;48.736;9.330;2023-07-24T03:33:56;8.37;;;6.37;;
2416;SDS011;1219;48.736;9.330;2023-07-24T03:36:22;8.57;;;6.83;;
2416;SDS011;1219;48.736;9.330;2023-07-24T03:38:48;7.97;;;7.00;;
2416;SDS011;1219;48.736;9.330;2023-07-24T03:41:14;8.03;;;7.00;;
2416;SDS011;1219;48.736;9.330;2023-07-24T03:43:40;7.30;;;6.60;;
2416;SDS011;1219;48.736;9.330;2023-07-24T03:46:07;6.90;;;6.20;;
2416;SDS011;1219;48.736;9.330;2023-07-24T03:48:33;9.20;;;6.37;;
2416;SDS011;1219;48.736;9.330;2023-07-24T03:51:02;9.00;;;6.80;;
2416;SDS011;1219;48.736;9.330;2023-07-24T03:53:28;8.03;;;7.13;;
2416;SDS011;1219;48.736;9.330;2023-07-24T03:55:54;10.47;;;6.00;;
2416;SDS011;1219;48.736;9.330;2023-07-24T03:58:20;6.20;;;5.43;;
2416;SDS011;1219;48.736;9.330;2023-07-24T04:00:46;8.07;;;6.40;;
2416;SDS011;1219;48.736;9.330;2023-07-24T04:03:12;8.43;;;7.40;;
2416;SDS011;1219;48.736;9.330;2023-07-24T04:05:38;8.80;;;6.17;;
2416;SDS011;1219;48.736;9.330;2023-07-24T04:08:04;8.20;;;5.93;;
2416;SDS011;1219;48.736;9.330;2023-07-24T04:10:30;9.50;;;6.40;;
2416;SDS011;1219;48.736;9.330;2023-07-24T04:12:56;9.80;;;7.23;;
2416;SDS011;1219;48.736;9.330;2023-07-24T04:15:22;9.60;;;6.57;;
2416;SDS011;1219;48.736;9.330;2023-07-24T04:17:48;8.10;;;6.93;;
2416;SDS011;1219;48.736;9.330;2023-07-24T04:20:14;10.33;;;8.03;;
2416;SDS011;1219;48.736;9.330;2023-07-24T04:22:40;9.07;;;7.00;;
2416;SDS011;1219;48.736;9.330;2023-07-24T04:25:06;8.57;;;6.43;;
2416;SDS011;1219;48.736;9.330;2023-07-24T04:27:32;8.63;;;7.73;;
2416;SDS011;1219;48.736;9.330;2023-07-24T04:29:58;9.93;;;6.00;;
2416;SDS011;1219;48.736;9.330;2023-07-24T04:32:25;6.60;;;5.63;;
2416;SDS011;1219;48.736;9.330;2023-07-24T04:34:52;10.13;;;7.17;;
2416;SDS011;1219;48.736;9.330;2023-07-24T04:37:18;8.50;;;6.83;;
2416;SDS011;1219;48.736;9.330;2023-07-24T04:39:44;7.23;;;6.37;;
2416;SDS011;1219;48.736;9.330;2023-07-24T04:42:10;7.50;;;6.47;;
2416;SDS011;1219;48.736;9.330;2023-07-24T04:44:36;7.80;;;6.00;;
2416;SDS011;1219;48.736;9.330;2023-07-24T04:47:02;8.73;;;6.63;;
2416;SDS011;1219;48.736;9.330;2023-07-24T04:49:28;9.20;;;7.87;;
2416;SDS011;1219;48.736;9.330;2023-07-24T04:51:55;7.47;;;6.30;;
2416;SDS011;1219;48.736;9.330;2023-07-24T04:54:21;9.60;;;6.63;;
2416;SDS011;1219;48.736;9.330;2023-07-24T04:56:46;6.93;;;6.20;;
2416;SDS011;1219;48.736;9.330;2023-07-24T04:59:12;10.53;;;7.07;;
2416;SDS011;1219;48.736;9.330;2023-07-24T05:01:38;9.17;;;6.90;;
2416;SDS011;1219;48.736;9.330;2023-07-24T05:04:04;9.83;;;7.50;;
2416;SDS011;1219;48.736;9.330;2023-07-24T05:06:30;9.80;;;6.90;;
2416;SDS011;1219;48.736;9.330;2023-07-24T05:08:56;7.50;;;6.80;;
2416;SDS011;1219;48.736;9.330;2023-07-24T05:11:22;9.40;;;7.23;;
2416;SDS011;1219;48.736;9.330;2023-07-24T05:13:48;9.33;;;7.43;;
2416;SDS011;1219;48.736;9.330;2023-07-24T05:16:14;8.20;;;6.60;;
2416;SDS011;1219;48.736;9.330;2023-07-24T05:18:40;8.50;;;7.60;;
2416;SDS011;1219;48.736;9.330;2023-07-24T05:21:06;10.77;;;8.13;;
2416;SDS011;1219;48.736;9.330;2023-07-24T05:23:32;10.93;;;7.70;;
2416;SDS011;1219;48.736;9.330;2023-07-24T05:25:58;8.83;;;7.43;;
2416;SDS011;1219;48.736;9.330;2023-07-24T05:28:28;8.90;;;7.67;;
2416;SDS011;1219;48.736;9.330;2023-07-24T05:30:54;8.37;;;7.27;;
2416;SDS011;1219;48.736;9.330;2023-07-24T05:33:20;9.23;;;7.20;;
2416;SDS011;1219;48.736;9.330;2023-07-24T05:35:46;9.23;;;7.90;;
2416;SDS011;1219;48.736;9.330;2023-07-24T05:38:12;7.80;;;6.90;;
2416;SDS011;1219;48.736;9.330;2023-07-24T05:40:38;9.63;;;7.60;;
2416;SDS011;1219;48.736;9.330;2023-07-24T05:43:04;8.40;;;6.50;;
2416;SDS011;1219;48.736;9.330;2023-07-24T05:45:30;9.90;;;7.13;;
2416;SDS011;1219;48.736;9.330;2023-07-24T05:47:56;12.10;;;7.90;;
2416;SDS011;1219;48.736;9.330;2023-07-24T05:50:21;11.03;;;8.33;;
2416;SDS011;1219;48.736;9.330;2023-07-24T05:52:47;7.87;;;6.80;;
2416;SDS011;1219;48.736;9.330;2023-07-24T05:55:13;8.60;;;7.20;;
2416;SDS011;1219;48.736;9.330;2023-07-24T05:57:39;8.47;;;6.67;;
2416;SDS011;1219;48.736;9.330;2023-07-24T06:00:05;11.07;;;8.63;;
2416;SDS011;1219;48.736;9.330;2023-07-24T06:02:32;16.13;;;8.20;;
2416;SDS011;1219;48.736;9.330;2023-07-24T06:04:58;8.40;;;7.53;;
2416;SDS011;1219;48.736;9.330;2023-07-24T06:07:24;7.87;;;7.10;;
2416;SDS011;1219;48.736;9.330;2023-07-24T06:09:50;9.43;;;7.90;;
2416;SDS011;1219;48.736;9.330;2023-07-24T06:12:16;9.10;;;8.20;;
2416;SDS011;1219;48.736;9.330;2023-07-24T06:14:42;11.10;;;7.40;;
2416;SDS011;1219;48.736;9.330;2023-07-24T06:17:08;8.87;;;7.93;;
2416;SDS011;1219;48.736;9.330;2023-07-24T06:19:34;8.47;;;6.80;;
2416;SDS011;1219;48.736;9.330;2023-07-24T06:22:00;9.90;;;6.63;;
2416;SDS011;1219;48.736;9.330;2023-07-24T06:24:26;7.90;;;6.20;;
2416;SDS011;1219;48.736;9.330;2023-07-24T06:26:51;7.93;;;7.13;;
2416;SDS011;1219;48.736;9.330;2023-07-24T06:29:17;8.47;;;7.57;;
2416;SDS011;1219;48.736;9.330;2023-07-24T06:31:43;7.83;;;7.03;;
2416;SDS011;1219;48.736;9.330;2023-07-24T06:34:09;9.30;;;7.70;;
2416;SDS011;1219;48.736;9.330;2023-07-24T06:36:35;9.80;;;7.03;;
2416;SDS011;1219;48.736;9.330;2023-07-24T06:39:01;9.00;;;7.37;;
2416;SDS011;1219;48.736;9.330;2023-07-24T06:41:27;9.40;;;7.40;;
2416;SDS011;1219;48.736;9.330;2023-07-24T06:43:53;8.73;;;7.70;;
2416;SDS011;1219;48.736;9.330;2023-07-24T06:46:19;10.10;;;7.77;;
2416;SDS011;1219;48.736;9.330;2023-07-24T06:48:45;11.53;;;7.40;;
2416;SDS011;1219;48.736;9.330;2023-07-24T06:51:11;9.77;;;7.50;;
2416;SDS011;1219;48.736;9.330;2023-07-24T06:53:37;13.80;;;8.07;;
2416;SDS011;1219;48.736;9.330;2023-07-24T06:56:03;9.37;;;7.97;;
2416;SDS011;1219;48.736;9.330;2023-07-24T06:58:29;9.97;;;8.43;;
2416;SDS011;1219;48.736;9.330;2023-07-24T07:00:55;9.10;;;8.30;;
2416;SDS011;1219;48.736;9.330;2023-07-24T07:03:21;9.90;;;7.70;;
2416;SDS011;1219;48.736;9.330;2023-07-24T07:05:47;11.40;;;8.50;;
2416;SDS011;1219;48.736;9.330;2023-07-24T07:08:13;9.40;;;8.30;;
2416;SDS011;1219;48.736;9.330;2023-07-24T07:10:39;7.73;;;6.80;;
2416;SDS011;1219;48.736;9.330;2023-07-24T07:13:05;9.17;;;7.73;;
2416;SDS011;1219;48.736;9.330;2023-07-24T07:15:31;7.90;;;7.03;;
2416;SDS011;1219;48.736;9.330;2023-07-24T07:17:57;8.70;;;7.60;;
2416;SDS011;1219;48.736;9.330;2023-07-24T07:20:23;9.23;;;7.77;;
2416;SDS011;1219;48.736;9.330;2023-07-24T07:22:49;9.53;;;7.60;;
2416;SDS011;1219;48.736;9.330;2023-07-24T07:25:15;10.07;;;7.10;;
2416;SDS011;1219;48.736;9.330;2023-07-24T07:27:41;8.13;;;7.33;;
2416;SDS011;1219;48.736;9.330;2023-07-24T07:30:07;9.50;;;7.77;;
2416;SDS011;1219;48.736;9.330;2023-07-24T07:32:33;9.93;;;7.90;;
2416;SDS011;1219;48.736;9.330;2023-07-24T07:34:59;9.03;;;7.50;;
2416;SDS011;1219;48.736;9.330;2023-07-24T07:37:25;8.33;;;6.57;;
2416;SDS011;1219;48.736;9.330;2023-07-24T07:39:51;8.53;;;7.20;;
2416;SDS011;1219;48.736;9.330;2023-07-24T07:42:16;10.53;;;7.50;;
2416;SDS011;1219;48.736;9.330;2023-07-24T07:44:42;16.63;;;7.53;;
2416;SDS011;1219;48.736;9.330;2023-07-24T07:47:08;12.97;;;7.87;;
2416;SDS011;1219;48.736;9.330;2023-07-24T07:49:34;7.73;;;6.80;;
2416;SDS011;1219;48.736;9.330;2023-07-24T07:52:00;9.10;;;7.70;;
2416;SDS011;1219;48.736;9.330;2023-07-24T07:54:26;10.13;;;7.90;;
2416;SDS011;1219;48.736;9.330;2023-07-24T07:56:52;9.83;;;8.30;;
2416;SDS011;1219;48.736;9.330;2023-07-24T07:59:18;9.07;;;7.80;;
2416;SDS011;1219;48.736;9.330;2023-07-24T08:01:44;8.90;;;8.10;;
2416;SDS011;1219;48.736;9.330;2023-07-24T08:04:11;15.00;;;8.30;;
2416;SDS011;1219;48.736;9.330;2023-07-24T08:06:37;11.40;;;8.13;;
2416;SDS011;1219;48.736;9.330;2023-07-24T08:09:03;9.77;;;7.50;;
2416;SDS011;1219;48.736;9.330;2023-07-24T08:11:28;10.50;;;8.43;;
2416;SDS011;1219;48.736;9.330;2023-07-24T08:13:54;11.03;;;7.97;;
2416;SDS011;1219;48.736;9.330;2023-07-24T08:16:20;7.90;;;6.87;;
2416;SDS011;1219;48.736;9.330;2023-07-24T08:18:47;17.63;;;8.07;;
2416;SDS011;1219;48.736;9.330;2023-07-24T08:21:13;14.47;;;8.43;;
2416;SDS011;1219;48.736;9.330;2023-07-24T08:23:39;10.47;;;6.87;;
2416;SDS011;1219;48.736;9.330;2023-07-24T08:26:06;13.10;;;8.10;;
2416;SDS011;1219;48.736;9.330;2023-07-24T08:28:32;9.77;;;8.27;;
2416;SDS011;1219;48.736;9.330;2023-07-24T08:31:00;7.60;;;6.80;;
2416;SDS011;1219;48.736;9.330;2023-07-24T08:33:27;10.33;;;7.87;;
2416;SDS011;1219;48.736;9.330;2023-07-24T08:36:00;9.40;;;7.67;;
2416;SDS011;1219;48.736;9.330;2023-07-24T08:38:27;15.93;;;8.00;;
2416;SDS011;1219;48.736;9.330;2023-07-24T08:41:00;8.37;;;7.40;;
2416;SDS011;1219;48.736;9.330;2023-07-24T08:43:26;8.37;;;7.53;;
2416;SDS011;1219;48.736;9.330;2023-07-24T08:45:53;9.97;;;7.80;;
2416;SDS011;1219;48.736;9.330;2023-07-24T08:48:19;7.63;;;6.67;;
2416;SDS011;1219;48.736;9.330;2023-07-24T08:50:46;7.93;;;6.23;;
2416;SDS011;1219;48.736;9.330;2023-07-24T08:53:12;13.00;;;8.33;;
2416;SDS011;1219;48.736;9.330;2023-07-24T08:55:39;8.47;;;7.07;;
2416;SDS011;1219;48.736;9.330;2023-07-24T08:58:05;11.10;;;6.83;;
2416;SDS011;1219;48.736;9.330;2023-07-24T09:02:58;7.77;;;6.83;;
2416;SDS011;1219;48.736;9.330;2023-07-24T09:05:24;9.97;;;6.43;;
2416;SDS011;1219;48.736;9.330;2023-07-24T09:07:50;9.37;;;6.80;;
2416;SDS011;1219;48.736;9.330;2023-07-24T09:10:23;8.60;;;7.33;;
2416;SDS011;1219;48.736;9.330;2023-07-24T09:12:50;8.17;;;6.60;;
2416;SDS011;1219;48.736;9.330;2023-07-24T09:15:16;7.30;;;6.50;;
2416;SDS011;1219;48.736;9.330;2023-07-24T09:17:49;8.50;;;7.23;;
2416;SDS011;1219;48.736;9.330;2023-07-24T09:20:15;9.80;;;7.63;;
2416;SDS011;1219;48.736;9.330;2023-07-24T09:22:51;6.77;;;6.17;;
2416;SDS011;1219;48.736;9.330;2023-07-24T09:25:17;8.03;;;6.93;;
2416;SDS011;1219;48.736;9.330;2023-07-24T09:27:44;8.33;;;6.57;;
2416;SDS011;1219;48.736;9.330;2023-07-24T09:30:13;7.57;;;6.07;;
2416;SDS011;1219;48.736;9.330;2023-07-24T09:32:40;10.17;;;6.50;;
2416;SDS011;1219;48.736;9.330;2023-07-24T09:35:15;7.03;;;6.20;;
2416;SDS011;1219;48.736;9.330;2023-07-24T09:37:43;7.40;;;5.53;;
2416;SDS011;1219;48.736;9.330;2023-07-24T09:40:09;10.10;;;6.60;;
2416;SDS011;1219;48.736;9.330;2023-07-24T09:42:35;5.70;;;5.20;;
2416;SDS011;1219;48.736;9.330;2023-07-24T09:45:02;8.90;;;6.30;;
2416;SDS011;1219;48.736;9.330;2023-07-24T09:47:28;7.17;;;6.07;;
2416;SDS011;1219;48.736;9.330;2023-07-24T09:49:54;9.80;;;5.63;;
2416;SDS011;1219;48.736;9.330;2023-07-24T09:52:21;7.43;;;6.27;;
2416;SDS011;1219;48.736;9.330;2023-07-24T09:55:00;9.43;;;6.47;;
2416;SDS011;1219;48.736;9.330;2023-07-24T09:57:28;7.73;;;6.13;;
2416;SDS011;1219;48.736;9.330;2023-07-24T09:59:54;10.03;;;7.03;;
2416;SDS011;1219;48.736;9.330;2023-07-24T10:02:22;6.67;;;5.80;;
2416;SDS011;1219;48.736;9.330;2023-07-24T10:04:49;8.30;;;6.40;;
2416;SDS011;1219;48.736;9.330;2023-07-24T10:07:15;6.47;;;5.80;;
2416;SDS011;1219;48.736;9.330;2023-07-24T10:09:42;6.50;;;5.60;;
2416;SDS011;1219;48.736;9.330;2023-07-24T10:12:09;9.20;;;6.40;;
2416;SDS011;1219;48.736;9.330;2023-07-24T10:14:35;7.13;;;5.30;;
2416;SDS011;1219;48.736;9.330;2023-07-24T10:17:01;5.73;;;5.30;;
2416;SDS011;1219;48.736;9.330;2023-07-24T10:19:40;7.33;;;5.83;;
2416;SDS011;1219;48.736;9.330;2023-07-24T10:22:08;5.20;;;4.80;;
2416;SDS011;1219;48.736;9.330;2023-07-24T10:24:35;6.57;;;5.97;;
2416;SDS011;1219;48.736;9.330;2023-07-24T10:27:02;6.30;;;5.80;;
2416;SDS011;1219;48.736;9.330;2023-07-24T10:29:28;5.57;;;5.10;;
2416;SDS011;1219;48.736;9.330;2023-07-24T10:31:54;5.97;;;5.40;;
2416;SDS011;1219;48.736;9.330;2023-07-24T10:34:20;9.00;;;6.47;;
2416;SDS011;1219;48.736;9.330;2023-07-24T10:36:46;8.97;;;6.13;;
2416;SDS011;1219;48.736;9.330;2023-07-24T10:39:16;6.63;;;6.03;;
2416;SDS011;1219;48.736;9.330;2023-07-24T10:41:45;7.23;;;5.93;;
2416;SDS011;1219;48.736;9.330;2023-07-24T10:44:11;10.80;;;6.80;;
2416;SDS011;1219;48.736;9.330;2023-07-24T10:46:41;8.27;;;6.70;;
2416;SDS011;1219;48.736;9.330;2023-07-24T10:49:08;11.47;;;7.40;;
2416;SDS011;1219;48.736;9.330;2023-07-24T10:51:34;10.90;;;7.70;;
2416;SDS011;1219;48.736;9.330;2023-07-24T10:54:02;9.50;;;7.43;;
2416;SDS011;1219;48.736;9.330;2023-07-24T10:56:29;9.20;;;7.67;;
2416;SDS011;1219;48.736;9.330;2023-07-24T10:58:54;8.83;;;7.93;;
2416;SDS011;1219;48.736;9.330;2023-07-24T11:01:20;8.17;;;6.60;;
2416;SDS011;1219;48.736;9.330;2023-07-24T11:03:47;10.70;;;7.27;;
2416;SDS011;1219;48.736;9.330;2023-07-24T11:06:15;7.67;;;6.87;;
2416;SDS011;1219;48.736;9.330;2023-07-24T11:08:41;13.60;;;8.87;;
2416;SDS011;1219;48.736;9.330;2023-07-24T11:11:08;11.40;;;7.00;;
2416;SDS011;1219;48.736;9.330;2023-07-24T11:13:34;8.93;;;6.80;;
2416;SDS011;1219;48.736;9.330;2023-07-24T11:16:06;8.70;;;7.20;;
2416;SDS011;1219;48.736;9.330;2023-07-24T11:18:33;7.83;;;6.67;;
2416;SDS011;1219;48.736;9.330;2023-07-24T11:21:11;12.40;;;6.87;;
2416;SDS011;1219;48.736;9.330;2023-07-24T11:23:37;10.37;;;7.27;;
2416;SDS011;1219;48.736;9.330;2023-07-24T11:26:03;8.50;;;7.10;;
2416;SDS011;1219;48.736;9.330;2023-07-24T11:28:38;8.43;;;6.57;;
2416;SDS011;1219;48.736;9.330;2023-07-24T11:31:04;8.10;;;5.70;;
2416;SDS011;1219;48.736;9.330;2023-07-24T11:33:30;8.00;;;7.20;;
2416;SDS011;1219;48.736;9.330;2023-07-24T11:35:56;8.73;;;5.63;;
2416;SDS011;1219;48.736;9.330;2023-07-24T11:38:23;6.87;;;6.10;;
2416;SDS011;1219;48.736;9.330;2023-07-24T11:40:49;8.33;;;6.70;;
2416;SDS011;1219;48.736;9.330;2023-07-24T11:43:24;6.47;;;5.53;;
2416;SDS011;1219;48.736;9.330;2023-07-24T11:45:51;6.77;;;5.70;;
2416;SDS011;1219;48.736;9.330;2023-07-24T11:48:18;9.23;;;7.10;;
2416;SDS011;1219;48.736;9.330;2023-07-24T11:50:45;8.07;;;6.83;;
2416;SDS011;1219;48.736;9.330;2023-07-24T11:53:30;5.90;;;5.30;;
2416;SDS011;1219;48.736;9.330;2023-07-24T11:55:59;6.07;;;5.17;;
2416;SDS011;1219;48.736;9.330;2023-07-24T11:58:29;5.73;;;5.23;;
2416;SDS011;1219;48.736;9.330;2023-07-24T12:00:55;7.27;;;6.57;;
2416;SDS011;1219;48.736;9.330;2023-07-24T12:03:22;7.60;;;6.00;;
2416;SDS011;1219;48.736;9.330;2023-07-24T12:05:49;6.53;;;5.43;;
2416;SDS011;1219;48.736;9.330;2023-07-24T12:08:16;6.53;;;5.93;;
2416;SDS011;1219;48.736;9.330;2023-07-24T12:10:42;6.50;;;5.90;;
2416;SDS011;1219;48.736;9.330;2023-07-24T12:13:08;7.93;;;7.13;;
2416;SDS011;1219;48.736;9.330;2023-07-24T12:15:34;5.87;;;5.37;;
2416;SDS011;1219;48.736;9.330;2023-07-24T12:18:04;10.03;;;6.97;;
2416;SDS011;1219;48.736;9.330;2023-07-24T12:20:30;6.70;;;5.60;;
2416;SDS011;1219;48.736;9.330;2023-07-24T12:22:56;10.40;;;7.23;;
2416;SDS011;1219;48.736;9.330;2023-07-24T12:25:23;6.53;;;5.93;;
2416;SDS011;1219;48.736;9.330;2023-07-24T12:27:49;6.60;;;5.87;;
2416;SDS011;1219;48.736;9.330;2023-07-24T12:30:15;6.07;;;5.57;;
2416;SDS011;1219;48.736;9.330;2023-07-24T12:32:41;6.70;;;5.93;;
2416;SDS011;1219;48.736;9.330;2023-07-24T12:35:08;6.80;;;6.20;;
2416;SDS011;1219;48.736;9.330;2023-07-24T12:37:34;6.93;;;5.60;;
2416;SDS011;1219;48.736;9.330;2023-07-24T12:40:00;7.40;;;5.60;;
2416;SDS011;1219;48.736;9.330;2023-07-24T12:42:27;8.50;;;5.50;;
2416;SDS011;1219;48.736;9.330;2023-07-24T12:44:53;8.63;;;5.60;;
2416;SDS011;1219;48.736;9.330;2023-07-24T12:47:19;7.43;;;5.80;;
2416;SDS011;1219;48.736;9.330;2023-07-24T12:49:45;6.60;;;5.67;;
2416;SDS011;1219;48.736;9.330;2023-07-24T12:52:11;6.70;;;6.10;;
2416;SDS011;1219;48.736;9.330;2023-07-24T12:54:37;6.47;;;5.83;;
2416;SDS011;1219;48.736;9.330;2023-07-24T12:57:03;6.27;;;5.50;;
2416;SDS011;1219;48.736;9.330;2023-07-24T12:59:29;6.00;;;5.40;;
2416;SDS011;1219;48.736;9.330;2023-07-24T13:01:55;8.23;;;5.40;;
2416;SDS011;1219;48.736;9.330;2023-07-24T13:04:22;7.20;;;6.60;;
2416;SDS011;1219;48.736;9.330;2023-07-24T13:06:48;6.83;;;5.40;;
2416;SDS011;1219;48.736;9.330;2023-07-24T13:09:14;5.60;;;5.00;;
2416;SDS011;1219;48.736;9.330;2023-07-24T13:11:40;8.27;;;6.20;;
2416;SDS011;1219;48.736;9.330;2023-07-24T13:14:05;5.37;;;4.87;;
2416;SDS011;1219;48.736;9.330;2023-07-24T13:16:31;6.13;;;5.63;;
2416;SDS011;1219;48.736;9.330;2023-07-24T13:18:57;5.70;;;5.20;;
2416;SDS011;1219;48.736;9.330;2023-07-24T13:21:23;6.50;;;5.43;;
2416;SDS011;1219;48.736;9.330;2023-07-24T13:23:49;5.63;;;5.23;;
2416;SDS011;1219;48.736;9.330;2023-07-24T13:26:16;6.33;;;4.50;;
2416;SDS011;1219;48.736;9.330;2023-07-24T13:28:42;4.67;;;4.37;;
2416;SDS011;1219;48.736;9.330;2023-07-24T13:31:15;6.17;;;4.37;;
2416;SDS011;1219;48.736;9.330;2023-07-24T13:33:42;7.10;;;4.40;;
2416;SDS011;1219;48.736;9.330;2023-07-24T13:36:08;5.33;;;4.90;;
2416;SDS011;1219;48.736;9.330;2023-07-24T13:38:34;5.07;;;4.67;;
2416;SDS011;1219;48.736;9.330;2023-07-24T13:41:01;5.10;;;4.40;;
2416;SDS011;1219;48.736;9.330;2023-07-24T13:43:27;7.30;;;5.43;;
2416;SDS011;1219;48.736;9.330;2023-07-24T13:45:53;5.17;;;4.53;;
2416;SDS011;1219;48.736;9.330;2023-07-24T13:48:19;5.83;;;5.20;;
2416;SDS011;1219;48.736;9.330;2023-07-24T13:50:45;4.73;;;4.33;;
2416;SDS011;1219;48.736;9.330;2023-07-24T13:53:11;5.00;;;4.50;;
2416;SDS011;1219;48.736;9.330;2023-07-24T13:55:37;8.60;;;4.27;;
2416;SDS011;1219;48.736;9.330;2023-07-24T13:58:03;5.20;;;4.70;;
2416;SDS011;1219;48.736;9.330;2023-07-24T14:00:29;4.80;;;4.40;;
2416;SDS011;1219;48.736;9.330;2023-07-24T14:02:55;4.80;;;4.30;;
2416;SDS011;1219;48.736;9.330;2023-07-24T14:05:21;5.83;;;4.03;;
2416;SDS011;1219;48.736;9.330;2023-07-24T14:07:47;4.60;;;4.20;;
2416;SDS011;1219;48.736;9.330;2023-07-24T14:10:13;4.03;;;3.70;;
2416;SDS011;1219;48.736;9.330;2023-07-24T14:12:39;3.50;;;3.20;;
2416;SDS011;1219;48.736;9.330;2023-07-24T14:15:05;5.60;;;3.77;;
2416;SDS011;1219;48.736;9.330;2023-07-24T14:17:31;4.60;;;4.13;;
2416;SDS011;1219;48.736;9.330;2023-07-24T14:19:57;4.80;;;4.40;;
2416;SDS011;1219;48.736;9.330;2023-07-24T14:22:23;4.57;;;4.17;;
2416;SDS011;1219;48.736;9.330;2023-07-24T14:24:49;4.50;;;4.10;;
2416;SDS011;1219;48.736;9.330;2023-07-24T14:27:15;5.70;;;5.10;;
2416;SDS011;1219;48.736;9.330;2023-07-24T14:29:41;4.83;;;4.43;;
2416;SDS011;1219;48.736;9.330;2023-07-24T14:32:07;5.30;;;4.40;;
2416;SDS011;1219;48.736;9.330;2023-07-24T14:34:33;4.10;;;3.80;;
2416;SDS011;1219;48.736;9.330;2023-07-24T14:36:59;3.77;;;3.40;;
2416;SDS011;1219;48.736;9.330;2023-07-24T14:39:25;4.30;;;3.90;;
2416;SDS011;1219;48.736;9.330;2023-07-24T14:41:51;4.83;;;3.57;;
2416;SDS011;1219;48.736;9.330;2023-07-24T14:44:17;3.93;;;3.63;;
2416;SDS011;1219;48.736;9.330;2023-07-24T14:46:43;4.17;;;3.80;;
2416;SDS011;1219;48.736;9.330;2023-07-24T14:49:09;3.90;;;3.30;;
2416;SDS011;1219;48.736;9.330;2023-07-24T14:51:35;2.80;;;2.60;;
2416;SDS011;1219;48.736;9.330;2023-07-24T14:54:01;4.27;;;3.97;;
2416;SDS011;1219;48.736;9.330;2023-07-24T14:56:27;5.50;;;5.20;;
2416;SDS011;1219;48.736;9.330;2023-07-24T14:58:53;4.40;;;3.93;;
2416;SDS011;1219;48.736;9.330;2023-07-24T15:01:19;3.23;;;3.03;;
2416;SDS011;1219;48.736;9.330;2023-07-24T15:03:45;3.60;;;3.30;;
2416;SDS011;1219;48.736;9.330;2023-07-24T15:06:11;3.43;;;3.23;;
2416;SDS011;1219;48.736;9.330;2023-07-24T15:08:37;3.30;;;3.10;;
2416;SDS011;1219;48.736;9.330;2023-07-24T15:11:03;6.30;;;3.10;;
2416;SDS011;1219;48.736;9.330;2023-07-24T15:13:29;3.80;;;3.50;;
2416;SDS011;1219;48.736;9.330;2023-07-24T15:15:55;2.90;;;2.60;;